Time;durP1;ratioP1;P1;durP2;ratioP2;P2;SDS_P1;SDS_P2;PMS_P1;PMS_P2;Temp;Humidity;BMP_temperature;BMP_pressure;BME280_temperature;BME280_humidity;BME280_pressure;Samples;Min_cycle;Max_cycle;Signal;HPM_P1;HPM_P2
2022/03/08 00:01:43;;;;;;;19.55;9.32;;;-2.90;92.30;;;;;;5006653;28;20049;-32
2022/03/08 00:04:08;;;;;;;14.93;9.38;;;-2.80;92.70;;;;;;4999382;28;20033;-32
2022/03/08 00:06:34;;;;;;;13.18;8.75;;;-2.80;92.40;;;;;;5008065;28;20523;-31
2022/03/08 00:09:00;;;;;;;14.73;8.27;;;-2.80;92.30;;;;;;5005046;28;20121;-32
2022/03/08 00:11:25;;;;;;;15.75;9.43;;;-2.70;91.90;;;;;;5008311;28;20045;-31
2022/03/08 00:13:51;;;;;;;15.60;8.30;;;-2.70;92.00;;;;;;5008217;28;20037;-32
2022/03/08 00:16:18;;;;;;;11.20;7.63;;;-2.90;92.50;;;;;;5005956;28;20403;-32
2022/03/08 00:18:44;;;;;;;13.70;8.35;;;-2.80;92.70;;;;;;5004185;28;20045;-32
2022/03/08 00:21:13;;;;;;;20.50;10.63;;;-2.70;92.20;;;;;;5000184;28;20034;-32
2022/03/08 00:23:38;;;;;;;22.83;10.95;;;-2.70;92.10;;;;;;5006105;28;20041;-32
2022/03/08 00:26:04;;;;;;;19.80;10.00;;;-2.80;92.10;;;;;;5004567;28;20046;-32
2022/03/08 00:28:29;;;;;;;13.70;7.63;;;-2.90;92.00;;;;;;5004460;28;20022;-33
2022/03/08 00:30:56;;;;;;;18.42;7.97;;;-2.90;92.40;;;;;;5005471;28;20076;-32
2022/03/08 00:33:23;;;;;;;17.83;10.35;;;-3.00;92.50;;;;;;5007116;28;20037;-32
2022/03/08 00:35:48;;;;;;;14.52;8.43;;;-2.90;92.20;;;;;;5005919;28;20215;-32
2022/03/08 00:38:15;;;;;;;11.55;8.82;;;-2.90;92.30;;;;;;4981440;28;20030;-32
2022/03/08 00:40:42;;;;;;;11.70;9.05;;;-2.90;91.90;;;;;;5005311;28;20057;-32
2022/03/08 00:43:07;;;;;;;14.18;7.75;;;-2.90;92.10;;;;;;5007844;28;20388;-32
2022/03/08 00:45:33;;;;;;;17.13;9.60;;;-2.90;92.00;;;;;;5007747;28;20029;-32
2022/03/08 00:47:58;;;;;;;17.35;10.43;;;-2.90;92.00;;;;;;5004194;28;20117;-32
2022/03/08 00:50:26;;;;;;;10.30;7.50;;;-2.90;91.90;;;;;;5007196;28;20449;-32
2022/03/08 00:52:54;;;;;;;16.23;9.10;;;-3.00;92.10;;;;;;5008288;28;20129;-31
2022/03/08 00:55:21;;;;;;;15.93;9.32;;;-2.90;92.30;;;;;;5006345;28;20025;-31
2022/03/08 00:57:47;;;;;;;18.10;10.18;;;-2.90;92.10;;;;;;5004436;28;20132;-32
2022/03/08 01:00:15;;;;;;;16.65;10.00;;;-3.00;92.30;;;;;;5006322;28;21689;-32
2022/03/08 01:02:41;;;;;;;15.87;9.27;;;-3.10;92.50;;;;;;5008515;28;20068;-31
2022/03/08 01:05:07;;;;;;;13.55;8.40;;;-3.20;93.50;;;;;;5002393;28;20037;-32
2022/03/08 01:07:33;;;;;;;15.30;9.55;;;-3.20;93.50;;;;;;5000881;28;20060;-31
2022/03/08 01:09:59;;;;;;;18.75;10.45;;;-3.20;93.70;;;;;;5002861;28;20038;-32
2022/03/08 01:12:25;;;;;;;19.30;9.40;;;-3.20;93.70;;;;;;5008443;28;20475;-32
2022/03/08 01:14:51;;;;;;;23.48;10.30;;;-3.30;94.10;;;;;;4989397;28;20503;-32
2022/03/08 01:17:17;;;;;;;19.70;9.88;;;-3.50;94.30;;;;;;4996715;28;20049;-32
2022/03/08 01:19:43;;;;;;;14.88;9.77;;;-3.60;94.90;;;;;;5004556;28;20030;-32
2022/03/08 01:22:10;;;;;;;16.88;10.68;;;-3.80;95.80;;;;;;5007859;28;20053;-32
2022/03/08 01:24:36;;;;;;;17.75;9.48;;;-3.90;96.10;;;;;;5003285;28;20109;-32
2022/03/08 01:27:02;;;;;;;13.23;8.73;;;-3.90;96.10;;;;;;5006078;28;20120;-31
2022/03/08 01:29:27;;;;;;;13.55;8.02;;;-3.90;96.10;;;;;;5001523;28;20100;-32
2022/03/08 01:31:53;;;;;;;17.15;8.63;;;-3.90;96.30;;;;;;5004525;28;20053;-32
2022/03/08 01:34:19;;;;;;;11.93;7.57;;;-3.90;96.30;;;;;;5003910;28;20120;-31
2022/03/08 01:36:44;;;;;;;12.40;8.13;;;-3.90;96.50;;;;;;5005408;28;21588;-32
2022/03/08 01:39:10;;;;;;;13.43;8.32;;;-3.90;96.40;;;;;;5004335;28;20483;-32
2022/03/08 01:41:36;;;;;;;16.38;9.20;;;-3.80;96.20;;;;;;5001973;28;20076;-32
2022/03/08 01:44:01;;;;;;;16.90;7.78;;;-3.70;95.90;;;;;;5006530;28;20041;-32
2022/03/08 01:46:27;;;;;;;11.93;7.25;;;-3.70;96.00;;;;;;5003579;28;20036;-31
2022/03/08 01:48:53;;;;;;;15.00;8.65;;;-3.70;95.90;;;;;;4999873;28;20541;-31
2022/03/08 01:51:20;;;;;;;16.38;8.02;;;-3.60;95.80;;;;;;5002943;28;20030;-32
2022/03/08 01:53:47;;;;;;;15.15;8.75;;;-3.60;95.40;;;;;;5004531;28;20018;-32
2022/03/08 01:56:12;;;;;;;11.27;6.70;;;-3.50;95.30;;;;;;4983842;28;20076;-32
2022/03/08 01:58:39;;;;;;;12.98;8.00;;;-3.50;95.10;;;;;;5000544;28;20030;-32
2022/03/08 02:01:06;;;;;;;11.13;7.80;;;-3.50;95.10;;;;;;5005107;28;20095;-32
2022/03/08 02:03:32;;;;;;;13.88;8.10;;;-3.50;94.90;;;;;;5004761;28;20053;-32
2022/03/08 02:05:58;;;;;;;11.85;7.05;;;-3.40;94.70;;;;;;5005210;28;20391;-32
2022/03/08 02:08:24;;;;;;;16.13;8.00;;;-3.50;94.60;;;;;;5001989;28;20038;-32
2022/03/08 02:10:52;;;;;;;17.38;9.05;;;-3.40;94.50;;;;;;5004544;28;20038;-32
2022/03/08 02:13:18;;;;;;;9.43;6.90;;;-3.40;94.40;;;;;;5007294;28;20543;-31
2022/03/08 02:15:49;;;;;;;13.85;8.82;;;-3.40;94.40;;;;;;5001778;28;20100;-32
2022/03/08 02:18:15;;;;;;;15.45;7.40;;;-3.40;94.30;;;;;;5003269;28;20499;-32
2022/03/08 02:20:40;;;;;;;12.38;7.70;;;-3.40;94.30;;;;;;4996826;28;20034;-32
2022/03/08 02:23:06;;;;;;;11.93;6.75;;;-3.30;94.00;;;;;;5004290;28;20104;-32
2022/03/08 02:25:31;;;;;;;9.10;6.20;;;-3.40;94.00;;;;;;4999431;28;20040;-32
2022/03/08 02:27:57;;;;;;;11.73;7.20;;;-3.60;94.60;;;;;;5004737;28;20058;-32
2022/03/08 02:30:24;;;;;;;11.00;7.35;;;-3.60;94.60;;;;;;5001223;28;20041;-32
2022/03/08 02:32:51;;;;;;;14.85;8.77;;;-3.60;95.00;;;;;;5005507;28;20041;-32
2022/03/08 02:35:19;;;;;;;13.48;8.35;;;-3.70;95.50;;;;;;5003215;28;20045;-32
2022/03/08 02:37:51;;;;;;;12.40;6.68;;;-3.90;95.90;;;;;;5001044;28;20038;-32
2022/03/08 02:40:19;;;;;;;15.25;8.35;;;-3.90;95.70;;;;;;5000704;28;20037;-32
2022/03/08 02:42:45;;;;;;;15.20;9.57;;;-3.90;96.00;;;;;;5001052;28;20076;-32
2022/03/08 02:45:12;;;;;;;13.65;8.55;;;-3.90;96.50;;;;;;5004250;28;20025;-32
2022/03/08 02:47:38;;;;;;;15.30;8.55;;;-4.00;97.40;;;;;;5002713;28;20442;-32
2022/03/08 02:50:06;;;;;;;15.02;8.80;;;-4.10;97.40;;;;;;5004500;28;20542;-33
2022/03/08 02:52:35;;;;;;;13.15;8.65;;;-4.00;97.30;;;;;;5005486;28;20025;-32
2022/03/08 02:55:02;;;;;;;14.85;6.68;;;-3.90;96.70;;;;;;5003198;28;20057;-32
2022/03/08 02:57:27;;;;;;;14.88;7.97;;;-3.90;96.70;;;;;;5006314;28;20040;-33
2022/03/08 02:59:53;;;;;;;10.27;8.02;;;-4.00;97.00;;;;;;4998113;28;20030;-32
2022/03/08 03:02:19;;;;;;;13.55;7.47;;;-3.90;96.90;;;;;;5004526;28;20057;-32
2022/03/08 03:04:46;;;;;;;15.20;7.20;;;-3.90;96.70;;;;;;5003289;28;20441;-32
2022/03/08 03:07:13;;;;;;;13.68;7.70;;;-3.90;96.60;;;;;;5003994;28;20037;-32
2022/03/08 03:09:39;;;;;;;15.18;9.23;;;-3.80;96.40;;;;;;4999152;28;20037;-32
2022/03/08 03:12:05;;;;;;;19.63;9.73;;;-4.00;97.00;;;;;;4999716;28;20065;-32
2022/03/08 03:14:30;;;;;;;12.25;7.78;;;-4.00;97.30;;;;;;5003304;28;20030;-32
2022/03/08 03:16:56;;;;;;;9.98;6.57;;;-4.00;97.30;;;;;;5002245;28;20034;-32
2022/03/08 03:19:22;;;;;;;9.10;5.80;;;-4.00;97.30;;;;;;5000258;28;20037;-32
2022/03/08 03:21:47;;;;;;;7.32;6.22;;;-4.00;96.90;;;;;;5002813;28;20022;-32
2022/03/08 03:24:13;;;;;;;8.90;5.68;;;-3.90;97.10;;;;;;5001673;28;20083;-32
2022/03/08 03:26:38;;;;;;;7.72;5.95;;;-4.00;97.10;;;;;;5004433;28;20042;-32
2022/03/08 03:29:04;;;;;;;9.48;5.18;;;-3.90;96.90;;;;;;5003005;28;20501;-32
2022/03/08 03:31:30;;;;;;;8.18;7.38;;;-4.00;96.90;;;;;;5001194;28;20061;-32
2022/03/08 03:33:55;;;;;;;6.63;6.10;;;-4.00;97.00;;;;;;5005742;28;20045;-32
2022/03/08 03:36:21;;;;;;;7.50;5.63;;;-4.00;96.90;;;;;;5003697;28;20491;-32
2022/03/08 03:38:47;;;;;;;12.45;5.47;;;-4.00;96.90;;;;;;5002898;28;20033;-32
2022/03/08 03:41:12;;;;;;;10.48;6.95;;;-4.10;97.20;;;;;;4999909;28;20116;-32
2022/03/08 03:43:38;;;;;;;14.38;6.72;;;-4.10;97.30;;;;;;5005085;28;20022;-32
2022/03/08 03:46:05;;;;;;;6.72;5.32;;;-4.10;97.50;;;;;;5003489;28;20034;-32
2022/03/08 03:48:32;;;;;;;10.10;6.60;;;-4.10;97.50;;;;;;5006369;28;20044;-32
2022/03/08 03:50:58;;;;;;;12.70;7.20;;;-4.10;97.60;;;;;;4999216;28;20041;-32
2022/03/08 03:53:23;;;;;;;10.88;7.28;;;-4.40;96.70;;;;;;5005455;28;20030;-32
2022/03/08 03:55:49;;;;;;;8.57;5.95;;;-4.70;98.70;;;;;;5006603;28;20121;-32
2022/03/08 03:58:15;;;;;;;13.93;6.88;;;-4.60;99.40;;;;;;4999276;28;20033;-32
2022/03/08 04:00:41;;;;;;;5.65;5.07;;;-4.50;99.00;;;;;;4999933;28;20434;-32
2022/03/08 04:03:07;;;;;;;8.75;7.45;;;-4.40;99.00;;;;;;5000583;28;20038;-32
2022/03/08 04:05:33;;;;;;;11.45;7.07;;;-4.40;98.90;;;;;;5005399;28;20473;-32
2022/03/08 04:07:59;;;;;;;13.98;7.43;;;-4.40;99.20;;;;;;5004026;28;20038;-32
2022/03/08 04:10:25;;;;;;;7.13;5.80;;;-4.50;99.80;;;;;;4999856;28;20049;-32
2022/03/08 04:12:50;;;;;;;14.18;7.18;;;-4.40;99.30;;;;;;4999624;28;20395;-32
2022/03/08 04:15:16;;;;;;;7.10;6.18;;;-4.40;99.10;;;;;;5004111;28;20065;-32
2022/03/08 04:17:42;;;;;;;9.65;7.10;;;-4.40;99.10;;;;;;4979072;28;20053;-32
2022/03/08 04:20:09;;;;;;;13.15;8.18;;;-4.40;99.30;;;;;;4998857;28;20025;-32
2022/03/08 04:22:35;;;;;;;13.65;6.47;;;-4.50;99.30;;;;;;5001356;28;20494;-32
2022/03/08 04:25:02;;;;;;;14.30;8.10;;;-4.60;99.60;;;;;;5006859;28;20033;-32
2022/03/08 04:27:28;;;;;;;11.05;5.82;;;-4.60;99.80;;;;;;4996390;28;20033;-32
2022/03/08 04:29:53;;;;;;;11.00;6.20;;;-4.50;99.70;;;;;;5004171;28;20033;-32
2022/03/08 04:32:19;;;;;;;8.77;6.35;;;-4.60;99.70;;;;;;4999955;28;20108;-32
2022/03/08 04:34:45;;;;;;;9.68;5.88;;;-4.70;99.70;;;;;;5008036;28;20041;-32
2022/03/08 04:37:10;;;;;;;9.80;6.03;;;-4.70;99.90;;;;;;5010346;28;20446;-32
2022/03/08 04:39:36;;;;;;;12.30;8.35;;;-4.80;99.90;;;;;;5007245;28;20040;-33
2022/03/08 04:42:02;;;;;;;11.73;7.32;;;-4.90;99.90;;;;;;5005825;28;20521;-32
2022/03/08 04:44:27;;;;;;;7.07;6.25;;;-4.90;99.90;;;;;;5001186;28;20041;-32
2022/03/08 04:46:53;;;;;;;16.00;7.20;;;-4.90;99.90;;;;;;5004415;28;20545;-32
2022/03/08 04:49:19;;;;;;;6.93;5.68;;;-4.80;99.90;;;;;;5006795;28;20038;-32
2022/03/08 04:51:45;;;;;;;7.10;5.95;;;-4.90;99.90;;;;;;5007063;28;20026;-32
2022/03/08 04:54:11;;;;;;;10.90;5.93;;;-4.90;99.90;;;;;;5007076;28;20026;-32
2022/03/08 04:56:36;;;;;;;13.95;6.75;;;-4.90;99.90;;;;;;5008154;28;20034;-32
2022/03/08 04:59:03;;;;;;;9.25;7.63;;;-4.90;99.90;;;;;;5007523;28;20692;-32
2022/03/08 05:01:29;;;;;;;8.40;7.15;;;-4.90;99.90;;;;;;5000913;28;20507;-32
2022/03/08 05:03:54;;;;;;;10.07;7.38;;;-4.90;99.90;;;;;;5002880;28;20037;-32
2022/03/08 05:06:20;;;;;;;11.30;6.30;;;-4.90;99.90;;;;;;4996376;28;20033;-32
2022/03/08 05:08:45;;;;;;;8.90;5.32;;;-4.70;99.90;;;;;;5009246;28;20060;-32
2022/03/08 05:11:11;;;;;;;8.70;5.93;;;-4.60;99.90;;;;;;4999198;28;20044;-32
2022/03/08 05:13:37;;;;;;;12.07;6.90;;;-4.60;99.90;;;;;;5002460;28;20329;-32
2022/03/08 05:16:04;;;;;;;8.95;4.45;;;-4.80;99.90;;;;;;5009908;28;20446;-32
2022/03/08 05:18:29;;;;;;;13.40;6.90;;;-4.90;99.90;;;;;;5005273;28;20430;-32
2022/03/08 05:20:55;;;;;;;12.90;6.93;;;-5.00;99.90;;;;;;5001974;28;20026;-32
2022/03/08 05:23:21;;;;;;;5.82;4.78;;;-5.00;99.90;;;;;;5001990;28;20491;-32
2022/03/08 05:25:46;;;;;;;13.23;8.95;;;-5.00;99.90;;;;;;5007728;28;20025;-32
2022/03/08 05:28:12;;;;;;;11.23;6.65;;;-5.00;99.90;;;;;;5005095;28;20041;-32
2022/03/08 05:30:38;;;;;;;11.70;6.40;;;-5.00;99.90;;;;;;5001014;28;20109;-32
2022/03/08 05:33:04;;;;;;;11.10;7.47;;;-5.10;99.90;;;;;;5004698;28;20044;-32
2022/03/08 05:35:29;;;;;;;11.20;6.65;;;-5.00;99.90;;;;;;5004596;28;20553;-32
2022/03/08 05:37:55;;;;;;;10.80;7.30;;;-4.90;99.90;;;;;;5007353;28;20545;-32
2022/03/08 05:40:21;;;;;;;12.32;7.53;;;-4.90;99.90;;;;;;4998729;28;20507;-32
2022/03/08 05:42:46;;;;;;;14.80;6.25;;;-4.90;99.90;;;;;;5002779;28;20108;-32
2022/03/08 05:45:12;;;;;;;5.88;5.35;;;-4.90;99.70;;;;;;4995074;28;20052;-32
2022/03/08 05:47:39;;;;;;;9.35;7.32;;;-4.80;99.60;;;;;;4998780;28;20133;-32
2022/03/08 05:50:07;;;;;;;9.50;6.05;;;-4.80;99.10;;;;;;4998425;28;20084;-32
2022/03/08 05:52:32;;;;;;;10.10;6.18;;;-4.70;99.40;;;;;;5000934;28;20672;-32
2022/03/08 05:54:58;;;;;;;7.32;5.80;;;-4.80;99.40;;;;;;5002374;28;20022;-32
2022/03/08 05:57:24;;;;;;;8.55;5.78;;;-4.80;99.90;;;;;;5003561;28;20018;-32
2022/03/08 05:59:50;;;;;;;7.88;6.05;;;-4.70;99.40;;;;;;5004000;28;20025;-32
2022/03/08 06:02:17;;;;;;;16.27;6.55;;;-4.60;99.80;;;;;;5004051;28;20066;-32
2022/03/08 06:04:42;;;;;;;9.23;6.50;;;-4.60;99.90;;;;;;5005110;28;20450;-32
2022/03/08 06:07:08;;;;;;;7.38;5.45;;;-4.60;99.90;;;;;;5008049;28;20119;-32
2022/03/08 06:09:34;;;;;;;13.77;7.70;;;-4.50;99.40;;;;;;5006866;28;20391;-32
2022/03/08 06:12:00;;;;;;;12.70;8.27;;;-4.60;99.60;;;;;;5002778;28;20026;-32
2022/03/08 06:14:27;;;;;;;5.65;5.15;;;-4.60;99.40;;;;;;5001224;28;20171;-32
2022/03/08 06:16:52;;;;;;;15.02;8.38;;;-4.70;99.60;;;;;;4997799;28;20045;-32
2022/03/08 06:19:18;;;;;;;16.38;7.25;;;-4.60;99.90;;;;;;4997771;28;20030;-32
2022/03/08 06:21:44;;;;;;;24.50;10.63;;;-4.60;99.90;;;;;;4996161;28;20029;-32
2022/03/08 06:24:11;;;;;;;5.95;5.50;;;-4.60;99.90;;;;;;4999954;28;20065;-32
2022/03/08 06:26:37;;;;;;;14.85;8.05;;;-4.70;99.90;;;;;;5000046;28;20367;-32
2022/03/08 06:29:03;;;;;;;8.35;4.28;;;-4.70;99.90;;;;;;4998664;28;20048;-32
2022/03/08 06:31:28;;;;;;;4.50;4.10;;;-4.90;99.90;;;;;;5004079;28;20041;-32
2022/03/08 06:33:54;;;;;;;2.60;2.50;;;-5.00;99.90;;;;;;5000958;28;20041;-32
2022/03/08 06:36:20;;;;;;;3.95;2.20;;;-5.10;99.90;;;;;;5009114;28;20454;-32
2022/03/08 06:38:46;;;;;;;1.80;1.70;;;-5.10;99.90;;;;;;5005321;28;20045;-32
2022/03/08 06:41:11;;;;;;;1.80;1.80;;;-5.20;99.90;;;;;;5002982;28;20034;-32
2022/03/08 06:43:39;;;;;;;1.52;1.52;;;-5.20;99.90;;;;;;4998959;28;20037;-32
2022/03/08 06:46:05;;;;;;;2.25;2.15;;;-5.20;99.90;;;;;;5005813;28;20034;-32
2022/03/08 06:48:30;;;;;;;2.50;2.40;;;-5.10;99.90;;;;;;5003202;28;20445;-32
2022/03/08 06:50:56;;;;;;;3.17;2.97;;;-5.10;99.90;;;;;;5005448;28;20062;-32
2022/03/08 06:53:21;;;;;;;4.90;3.83;;;-5.00;99.90;;;;;;4999404;28;20041;-32
2022/03/08 06:55:47;;;;;;;3.53;3.25;;;-4.90;99.90;;;;;;4998846;28;20483;-32
2022/03/08 06:58:13;;;;;;;6.03;4.93;;;-4.80;99.90;;;;;;5003771;28;20030;-32
2022/03/08 07:00:38;;;;;;;7.22;5.85;;;-4.70;99.90;;;;;;4980128;28;20121;-32
2022/03/08 07:03:04;;;;;;;11.98;7.15;;;-4.50;99.90;;;;;;4996846;28;20034;-32
2022/03/08 07:05:30;;;;;;;6.25;4.03;;;-4.40;99.90;;;;;;5002155;28;20038;-32
2022/03/08 07:07:55;;;;;;;6.13;5.03;;;-4.20;99.90;;;;;;5007950;28;20036;-32
2022/03/08 07:10:21;;;;;;;2.70;2.22;;;-4.00;99.90;;;;;;5002677;28;20129;-32
2022/03/08 07:12:47;;;;;;;7.22;5.65;;;-3.80;99.90;;;;;;5003636;28;21433;-32
2022/03/08 07:15:14;;;;;;;8.20;6.63;;;-3.60;99.90;;;;;;4998982;28;20137;-32
2022/03/08 07:17:44;;;;;;;12.25;6.88;;;-3.20;99.90;;;;;;5001952;28;20041;-32
2022/03/08 07:20:10;;;;;;;9.30;5.55;;;-3.00;99.90;;;;;;5000663;28;20541;-32
2022/03/08 07:22:36;;;;;;;14.20;7.93;;;-2.80;99.10;;;;;;5002143;28;20037;-32
2022/03/08 07:25:02;;;;;;;6.60;5.75;;;-2.80;98.70;;;;;;4992264;28;20037;-32
2022/03/08 07:27:28;;;;;;;6.43;5.72;;;-2.60;99.60;;;;;;4997871;28;20034;-33
2022/03/08 07:29:53;;;;;;;1.05;1.05;;;-2.50;99.90;;;;;;5003950;28;20037;-32
2022/03/08 07:32:19;;;;;;;7.75;5.10;;;-2.50;99.90;;;;;;4999139;28;20073;-32
2022/03/08 07:34:45;;;;;;;10.63;6.55;;;-2.40;98.90;;;;;;5001843;28;20121;-33
2022/03/08 07:37:11;;;;;;;8.05;6.25;;;-2.20;96.20;;;;;;5004899;28;20471;-32
2022/03/08 07:39:36;;;;;;;10.00;7.20;;;-1.90;95.70;;;;;;5005100;28;20030;-32
2022/03/08 07:42:02;;;;;;;11.07;7.57;;;-1.80;96.70;;;;;;5000811;28;20533;-32
2022/03/08 07:44:28;;;;;;;9.77;6.65;;;-1.60;96.40;;;;;;4999189;28;20026;-32
2022/03/08 07:46:55;;;;;;;7.95;6.97;;;-1.50;93.90;;;;;;5006949;28;20040;-33
2022/03/08 07:49:21;;;;;;;7.97;5.82;;;-1.30;96.20;;;;;;5004566;28;20044;-32
2022/03/08 07:51:47;;;;;;;6.25;5.07;;;-1.20;93.20;;;;;;5002761;28;20042;-32
2022/03/08 07:54:13;;;;;;;8.98;6.80;;;-1.20;91.00;;;;;;5005396;28;20041;-32
2022/03/08 07:56:39;;;;;;;15.57;10.40;;;-1.10;91.00;;;;;;5005941;28;20060;-32
2022/03/08 07:59:06;;;;;;;9.82;6.32;;;-1.00;91.90;;;;;;5008254;28;20108;-32
2022/03/08 08:01:32;;;;;;;12.65;8.85;;;-0.80;90.90;;;;;;5004841;28;20105;-32
2022/03/08 08:03:57;;;;;;;10.05;5.80;;;-0.70;92.60;;;;;;5005444;28;20030;-32
2022/03/08 08:06:23;;;;;;;15.80;6.65;;;-0.70;90.60;;;;;;5004537;28;22760;-32
2022/03/08 08:08:48;;;;;;;11.82;6.15;;;-0.60;89.60;;;;;;5009970;28;20104;-32
2022/03/08 08:11:14;;;;;;;11.90;7.90;;;-0.50;90.00;;;;;;5008285;28;20095;-32
2022/03/08 08:13:40;;;;;;;10.85;7.40;;;-0.50;91.10;;;;;;5004547;28;20036;-32
2022/03/08 08:16:06;;;;;;;13.68;7.82;;;-0.40;92.20;;;;;;5008909;28;20056;-32
2022/03/08 08:18:31;;;;;;;10.38;7.30;;;-0.30;90.10;;;;;;5008989;28;20115;-32
2022/03/08 08:20:57;;;;;;;10.05;6.40;;;-0.10;85.90;;;;;;5006632;28;20053;-32
2022/03/08 08:23:23;;;;;;;13.68;7.63;;;0.00;89.90;;;;;;5005217;28;20057;-32
2022/03/08 08:25:49;;;;;;;12.35;6.15;;;0.10;87.30;;;;;;5008799;28;20034;-32
2022/03/08 08:28:15;;;;;;;7.70;6.22;;;0.10;92.90;;;;;;5003102;28;20036;-32
2022/03/08 08:30:40;;;;;;;12.30;5.95;;;0.40;90.30;;;;;;5004972;28;20026;-32
2022/03/08 08:33:06;;;;;;;10.57;6.22;;;0.40;78.60;;;;;;5006707;28;20033;-32
2022/03/08 08:35:32;;;;;;;13.15;7.20;;;0.40;82.00;;;;;;5006119;28;20048;-32
2022/03/08 08:37:58;;;;;;;12.93;6.82;;;0.60;81.80;;;;;;5005415;28;20403;-32
2022/03/08 08:40:23;;;;;;;12.48;7.60;;;0.70;81.80;;;;;;5006990;28;20378;-32
2022/03/08 08:42:49;;;;;;;10.75;6.32;;;0.80;85.90;;;;;;5004471;28;20026;-32
2022/03/08 08:45:15;;;;;;;8.85;5.57;;;1.00;80.10;;;;;;5007698;28;20121;-32
2022/03/08 08:47:40;;;;;;;14.95;7.57;;;1.10;77.20;;;;;;5008688;28;20048;-32
2022/03/08 08:50:06;;;;;;;10.10;6.15;;;1.20;70.90;;;;;;5008488;28;20161;-32
2022/03/08 08:52:33;;;;;;;8.57;5.45;;;1.10;72.00;;;;;;5003911;28;20039;-32
2022/03/08 08:54:59;;;;;;;8.48;5.47;;;1.20;78.70;;;;;;5004581;28;20561;-32
2022/03/08 08:57:25;;;;;;;10.77;6.15;;;1.40;76.40;;;;;;5009360;28;20034;-32
2022/03/08 08:59:50;;;;;;;9.43;6.75;;;1.30;71.30;;;;;;5007107;28;20410;-32
2022/03/08 09:02:16;;;;;;;9.60;6.50;;;1.50;71.00;;;;;;5014242;28;20042;-33
2022/03/08 09:04:42;;;;;;;9.90;6.75;;;1.40;69.60;;;;;;5007938;28;20041;-33
2022/03/08 09:07:08;;;;;;;13.20;6.88;;;1.50;67.80;;;;;;5006580;28;20026;-32
2022/03/08 09:09:33;;;;;;;13.45;6.32;;;1.40;63.80;;;;;;5008384;28;20439;-32
2022/03/08 09:11:59;;;;;;;9.82;5.97;;;1.50;72.80;;;;;;5008201;28;20445;-32
2022/03/08 09:14:25;;;;;;;9.80;6.43;;;1.90;71.90;;;;;;5006269;28;20037;-32
2022/03/08 09:16:51;;;;;;;11.60;6.40;;;1.80;64.30;;;;;;5007382;28;20029;-32
2022/03/08 09:19:17;;;;;;;7.72;5.85;;;1.80;65.30;;;;;;5002957;28;20477;-33
2022/03/08 09:21:42;;;;;;;8.35;5.28;;;1.90;63.90;;;;;;5007578;28;20044;-32
2022/03/08 09:24:08;;;;;;;9.25;5.75;;;2.00;68.60;;;;;;5006859;28;20038;-32
2022/03/08 09:26:33;;;;;;;11.90;6.10;;;2.10;61.20;;;;;;4999751;28;20030;-32
2022/03/08 09:28:59;;;;;;;10.95;6.88;;;2.30;63.80;;;;;;5006031;28;20038;-32
2022/03/08 09:31:25;;;;;;;10.45;6.28;;;2.50;62.70;;;;;;5007117;28;20592;-32
2022/03/08 09:33:50;;;;;;;12.40;6.75;;;2.50;59.60;;;;;;5004448;28;20044;-32
2022/03/08 09:36:17;;;;;;;8.98;6.53;;;2.50;60.10;;;;;;4986331;28;20027;-32
2022/03/08 09:38:44;;;;;;;8.43;5.80;;;2.60;59.10;;;;;;5007850;28;20578;-32
2022/03/08 09:41:11;;;;;;;11.48;6.25;;;2.70;59.10;;;;;;5003648;28;20580;-33
2022/03/08 09:43:38;;;;;;;9.10;5.88;;;2.80;58.60;;;;;;5012996;28;20034;-32
2022/03/08 09:46:05;;;;;;;12.20;6.65;;;2.90;57.70;;;;;;5012044;28;20037;-32
2022/03/08 09:48:31;;;;;;;10.23;6.45;;;2.90;58.30;;;;;;5009407;28;20100;-32
2022/03/08 09:50:59;;;;;;;7.95;5.95;;;3.00;57.00;;;;;;5007584;28;20026;-33
2022/03/08 09:53:26;;;;;;;8.68;6.00;;;3.10;57.90;;;;;;5001787;28;20041;-32
2022/03/08 09:55:59;;;;;;;8.60;5.70;;;3.10;57.40;;;;;;5001580;28;20030;-32
2022/03/08 09:58:25;;;;;;;8.25;5.28;;;3.20;54.80;;;;;;5001043;28;20402;-32
2022/03/08 10:00:52;;;;;;;9.65;5.57;;;3.30;55.40;;;;;;5001926;28;20042;-32
2022/03/08 10:03:42;;;;;;;7.22;5.07;;;3.40;57.00;;;;;;5001099;28;20030;-33
2022/03/08 10:06:09;;;;;;;10.90;6.28;;;3.60;54.20;;;;;;4999860;28;20034;-32
2022/03/08 10:08:35;;;;;;;8.77;5.43;;;3.80;54.90;;;;;;5002711;28;20022;-32
2022/03/08 10:11:11;;;;;;;15.02;6.25;;;3.80;51.90;;;;;;5000857;28;20060;-32
2022/03/08 10:13:45;;;;;;;11.30;5.72;;;3.70;52.40;;;;;;5001489;28;20111;-32
2022/03/08 10:16:24;;;;;;;8.75;4.80;;;3.80;54.70;;;;;;5000870;28;20030;-32
2022/03/08 10:18:52;;;;;;;9.88;5.88;;;4.10;52.70;;;;;;5000452;28;20081;-32
2022/03/08 10:21:33;;;;;;;11.40;5.88;;;4.20;53.20;;;;;;4999394;28;20029;-32
2022/03/08 10:24:01;;;;;;;17.02;5.60;;;4.10;51.90;;;;;;4999310;28;20072;-33
2022/03/08 10:26:28;;;;;;;9.15;5.38;;;4.10;51.40;;;;;;4999436;28;20769;-33
2022/03/08 10:28:55;;;;;;;5.40;4.13;;;4.10;50.60;;;;;;5004436;28;20041;-32
2022/03/08 10:31:21;;;;;;;8.18;5.15;;;4.20;51.40;;;;;;5000333;28;20095;-33
2022/03/08 10:33:48;;;;;;;9.05;5.18;;;4.10;51.10;;;;;;5001383;28;20033;-32
2022/03/08 10:36:23;;;;;;;10.10;5.32;;;4.30;51.10;;;;;;5000816;28;20052;-33
2022/03/08 10:39:09;;;;;;;10.30;5.82;;;4.40;50.20;;;;;;5002195;28;20415;-33
2022/03/08 10:41:47;;;;;;;12.45;6.28;;;4.40;50.20;;;;;;5000115;28;20026;-33
2022/03/08 10:44:12;;;;;;;8.90;5.07;;;4.30;50.70;;;;;;5002171;28;20410;-32
2022/03/08 10:46:38;;;;;;;11.32;5.78;;;4.30;52.20;;;;;;5003017;28;20029;-33
2022/03/08 10:49:12;;;;;;;7.80;5.22;;;4.50;51.20;;;;;;5001673;28;20117;-32
2022/03/08 10:51:37;;;;;;;11.20;5.03;;;4.40;51.40;;;;;;4999983;28;20399;-32
2022/03/08 10:54:14;;;;;;;7.45;5.00;;;4.70;50.00;;;;;;4996361;28;20030;-32
2022/03/08 10:56:45;;;;;;;11.00;5.47;;;4.70;49.50;;;;;;5003553;28;20030;-32
2022/03/08 10:59:15;;;;;;;7.78;4.47;;;4.70;50.10;;;;;;4999301;28;20060;-32
2022/03/08 11:01:41;;;;;;;6.00;4.50;;;4.90;50.30;;;;;;4999127;28;20037;-33
2022/03/08 11:04:20;;;;;;;9.90;4.95;;;5.10;48.10;;;;;;5001322;28;20037;-33
2022/03/08 11:06:50;;;;;;;5.78;4.13;;;4.80;46.50;;;;;;4999307;28;20099;-32
2022/03/08 11:09:16;;;;;;;7.85;3.70;;;4.80;46.80;;;;;;4998109;28;20649;-32
2022/03/08 11:11:43;;;;;;;7.28;4.85;;;4.90;47.50;;;;;;4999787;28;20633;-33
2022/03/08 11:14:09;;;;;;;7.07;4.55;;;4.90;46.20;;;;;;4999711;28;20420;-32
2022/03/08 11:16:35;;;;;;;10.50;5.43;;;5.20;47.00;;;;;;4995574;28;20402;-33
2022/03/08 11:19:01;;;;;;;5.05;4.10;;;5.20;45.20;;;;;;5002328;28;20026;-34
2022/03/08 11:21:28;;;;;;;7.97;3.92;;;5.20;44.70;;;;;;5000654;28;20029;-33
2022/03/08 11:23:54;;;;;;;6.70;4.13;;;5.10;46.20;;;;;;4999459;28;20117;-33
2022/03/08 11:26:22;;;;;;;9.23;4.53;;;5.10;45.90;;;;;;4999249;28;20037;-33
2022/03/08 11:28:49;;;;;;;8.23;4.50;;;5.20;45.30;;;;;;4997993;28;20048;-33
2022/03/08 11:31:21;;;;;;;12.50;5.32;;;5.20;44.80;;;;;;4998998;28;20083;-32
2022/03/08 11:34:14;;;;;;;5.95;4.03;;;5.10;45.40;;;;;;4999958;28;20026;-32
2022/03/08 11:36:54;;;;;;;9.45;4.40;;;5.00;45.20;;;;;;4993524;28;20069;-33
2022/03/08 11:39:22;;;;;;;9.25;4.25;;;5.20;44.10;;;;;;4999411;28;20084;-32
2022/03/08 11:41:49;;;;;;;;;;;5.30;43.70;;;;;;5005196;28;20788;-32
2022/03/08 11:44:27;;;;;;;6.55;3.88;;;5.20;44.10;;;;;;5003389;28;19913;-33
2022/03/08 11:47:15;;;;;;;4.57;4.07;;;5.70;45.40;;;;;;5006194;28;20797;-32
2022/03/08 11:49:51;;;;;;;6.50;3.93;;;5.80;44.40;;;;;;5004370;28;20077;-33
2022/03/08 11:52:24;;;;;;;6.35;3.42;;;5.80;43.60;;;;;;5005703;28;20466;-33
2022/03/08 11:54:59;;;;;;;9.27;3.53;;;5.80;42.00;;;;;;5001375;28;20025;-32
2022/03/08 11:57:43;;;;;;;10.85;4.93;;;5.70;41.60;;;;;;4987137;28;20100;-33
2022/03/08 12:00:23;;;;;;;6.05;3.72;;;5.50;42.40;;;;;;5005694;28;20030;-33
2022/03/08 12:02:52;;;;;;;5.82;3.75;;;5.40;42.00;;;;;;5004497;28;20065;-32
2022/03/08 12:05:36;;;;;;;;;;;5.30;41.60;;;;;;5004035;28;20034;-32
2022/03/08 12:08:27;;;;;;;4.30;2.83;;;5.40;41.60;;;;;;5003044;28;19959;-32
2022/03/08 12:11:01;;;;;;;11.75;3.75;;;5.70;42.10;;;;;;5001996;28;20061;-32
2022/03/08 12:13:33;;;;;;;5.30;3.35;;;5.60;41.10;;;;;;5004297;28;20683;-32
2022/03/08 12:16:10;;;;;;;4.72;3.83;;;5.40;40.30;;;;;;5002364;28;20032;-32
2022/03/08 12:18:37;;;;;;;4.78;3.28;;;5.40;40.20;;;;;;5003906;28;20042;-32
2022/03/08 12:21:19;;;;;;;5.82;4.10;;;5.50;41.30;;;;;;5008610;28;20037;-32
2022/03/08 12:23:51;;;;;;;6.13;3.65;;;5.40;40.50;;;;;;5003702;28;20026;-32
2022/03/08 12:26:38;;;;;;;6.97;3.30;;;5.40;41.10;;;;;;4986536;28;20483;-32
2022/03/08 12:29:06;;;;;;;3.67;2.90;;;5.60;40.90;;;;;;5003311;28;20029;-32
2022/03/08 12:31:53;;;;;;;5.32;3.50;;;5.60;40.10;;;;;;5002816;28;20146;-32
2022/03/08 12:34:19;;;;;;;5.82;3.80;;;5.60;41.50;;;;;;4962739;28;20054;-32
2022/03/08 12:37:07;;;;;;;6.47;3.75;;;5.60;41.80;;;;;;5003479;28;20529;-32
2022/03/08 12:39:56;;;;;;;6.30;3.78;;;5.70;40.30;;;;;;5003488;28;20573;-33
2022/03/08 12:42:30;;;;;;;9.98;3.97;;;5.90;42.30;;;;;;5002321;28;20605;-33
2022/03/08 12:45:09;;;;;;;5.57;3.25;;;5.70;39.80;;;;;;4999930;28;20033;-32
2022/03/08 12:47:38;;;;;;;6.45;4.22;;;5.80;41.20;;;;;;5000470;28;20029;-33